Time;durP1;ratioP1;P1;durP2;ratioP2;P2;SDS_P1;SDS_P2;PMS_P1;PMS_P2;Temp;Humidity;BMP_temperature;BMP_pressure;BME280_temperature;BME280_humidity;BME280_pressure;Samples;Min_cycle;Max_cycle;Signal;HPM_P1;HPM_P2
2023/11/06 00:01:18;;;;;;;;;;;;;;;;;;5096898;28;19932;-77
2023/11/06 00:03:45;;;;;;;;;;;;;;;;;;5108638;28;19932;-77
2023/11/06 00:06:11;;;;;;;;;;;;;;;;;;5112875;28;20272;-77
2023/11/06 00:08:38;;;;;;;;;;;;;;;;;;5105430;28;19930;-77
2023/11/06 00:11:05;;;;;;;;;;;;;;;;;;5087614;28;20026;-78
2023/11/06 00:13:32;;;;;;;;;;;;;;;;;;5095200;28;19990;-78
2023/11/06 00:15:59;;;;;;;;;;;;;;;;;;5102655;28;19930;-77
2023/11/06 00:18:25;;;;;;;;;;;;;;;;;;5103632;28;20284;-76
2023/11/06 00:20:52;;;;;;;;;;;;;;;;;;5104746;28;19928;-77
2023/11/06 00:23:18;;;;;;;;;;;;;;;;;;5094121;28;19979;-78
2023/11/06 00:25:45;;;;;;;;;;;;;;;;;;5099733;28;19935;-77
2023/11/06 00:28:11;;;;;;;;;;;;;;;;;;5091826;28;19928;-77
2023/11/06 00:30:38;;;;;;;;;;;;;;;;;;5102647;28;19924;-78
2023/11/06 00:33:04;;;;;;;;;;;;;;;;;;5100323;28;20485;-77
2023/11/06 00:35:32;;;;;;;;;;;;;;;;;;5105502;28;19967;-78
2023/11/06 00:37:58;;;;;;;;;;;;;;;;;;5103980;28;19924;-78
2023/11/06 00:40:25;;;;;;;;;;;;;;;;;;5080164;28;19931;-77
2023/11/06 00:42:52;;;;;;;;;;;;;;;;;;5100227;28;19930;-77
2023/11/06 00:45:18;;;;;;;;;;;;;;;;;;5109078;28;19928;-77
2023/11/06 00:54:54;;;;;;;;;;;;;;;;;;5102061;28;19923;-78
2023/11/06 00:57:20;;;;;;;;;;;;;;;;;;5089129;28;19923;-78
2023/11/06 00:59:47;;;;;;;;;;;;;;;;;;5106247;28;19923;-77
2023/11/06 01:02:14;;;;;;;;;;;;;;;;;;5099043;28;20372;-78
2023/11/06 01:04:41;;;;;;;;;;;;;;;;;;5098358;28;20005;-77
2023/11/06 01:07:07;;;;;;;;;;;;;;;;;;5099158;28;19928;-77
2023/11/06 01:09:34;;;;;;;;;;;;;;;;;;5108844;28;20379;-77
2023/11/06 01:12:02;;;;;;;;;;;;;;;;;;5093915;28;20038;-76
2023/11/06 01:14:28;;;;;;;;;;;;;;;;;;5105399;28;20308;-77
2023/11/06 01:16:55;;;;;;;;;;;;;;;;;;5102836;28;19924;-77
2023/11/06 01:19:22;;;;;;;;;;;;;;;;;;5109996;28;19923;-77
2023/11/06 01:21:48;;;;;;;;;;;;;;;;;;5083116;28;20022;-77
2023/11/06 01:24:15;;;;;;;;;;;;;;;;;;5098989;28;19928;-77
2023/11/06 01:26:42;;;;;;;;;;;;;;;;;;5090218;28;19924;-77
2023/11/06 01:29:09;;;;;;;;;;;;;;;;;;5091079;28;20361;-77
2023/11/06 01:31:35;;;;;;;;;;;;;;;;;;5084864;28;20014;-77
2023/11/06 01:34:02;;;;;;;;;;;;;;;;;;5082634;28;19930;-78
2023/11/06 01:36:30;;;;;;;;;;;;;;;;;;5095259;28;19959;-79
2023/11/06 01:38:56;;;;;;;;;;;;;;;;;;5088467;28;19924;-76
2023/11/06 01:41:23;;;;;;;;;;;;;;;;;;5101263;28;19960;-76
2023/11/06 01:43:51;;;;;;;;;;;;;;;;;;5101019;28;19931;-76
2023/11/06 01:46:21;;;;;;;;;;;;;;;;;;5099255;28;19973;-76
2023/11/06 01:48:47;;;;;;;;;;;;;;;;;;5100295;28;20295;-75
2023/11/06 01:51:14;;;;;;;;;;;;;;;;;;5101077;28;19989;-76
2023/11/06 01:53:42;;;;;;;;;;;;;;;;;;5093430;28;19923;-77
2023/11/06 01:56:08;;;;;;;;;;;;;;;;;;5100961;28;20639;-76
2023/11/06 01:58:35;;;;;;;;;;;;;;;;;;5108777;28;19923;-78
2023/11/06 02:01:05;;;;;;;;;;;;;;;;;;5109233;28;19924;-75
2023/11/06 02:03:33;;;;;;;;;;;;;;;;;;5098236;28;19928;-76
2023/11/06 02:05:59;;;;;;;;;;;;;;;;;;5113068;28;19935;-74
2023/11/06 02:08:26;;;;;;;;;;;;;;;;;;5104562;28;19931;-76
2023/11/06 02:10:53;;;;;;;;;;;;;;;;;;5113279;28;19924;-78
2023/11/06 02:13:20;;;;;;;;;;;;;;;;;;5106933;28;19923;-75
2023/11/06 02:15:47;;;;;;;;;;;;;;;;;;5101537;28;19924;-76
2023/11/06 02:18:13;;;;;;;;;;;;;;;;;;5103698;28;19957;-75
2023/11/06 02:20:41;;;;;;;;;;;;;;;;;;5107417;28;19932;-76
2023/11/06 02:23:08;;;;;;;;;;;;;;;;;;5110389;28;19969;-77
2023/11/06 02:25:35;;;;;;;;;;;;;;;;;;5091452;28;20019;-76
2023/11/06 02:28:03;;;;;;;;;;;;;;;;;;5102919;28;20380;-76
2023/11/06 02:30:30;;;;;;;;;;;;;;;;;;5103253;28;19924;-75
2023/11/06 02:32:56;;;;;;;;;;;;;;;;;;5096223;28;20304;-76
2023/11/06 02:35:23;;;;;;;;;;;;;;;;;;5104285;28;20439;-76
2023/11/06 02:37:50;;;;;;;;;;;;;;;;;;5104205;28;19924;-76
2023/11/06 02:40:16;;;;;;;;;;;;;;;;;;5111620;28;19924;-76
2023/11/06 02:42:44;;;;;;;;;;;;;;;;;;5095411;28;19932;-78
2023/11/06 02:45:14;;;;;;;;;;;;;;;;;;5098663;28;20292;-77
2023/11/06 02:47:41;;;;;;;;;;;;;;;;;;5084795;28;19973;-76
2023/11/06 02:50:12;;;;;;;;;;;;;;;;;;5098774;28;20012;-76
2023/11/06 02:52:39;;;;;;;;;;;;;;;;;;5107205;28;19928;-77
2023/11/06 02:55:06;;;;;;;;;;;;;;;;;;5105121;28;19923;-75
2023/11/06 02:57:32;;;;;;;;;;;;;;;;;;5091039;28;20007;-75
2023/11/06 02:59:59;;;;;;;;;;;;;;;;;;5103420;28;19953;-79
2023/11/06 03:02:28;;;;;;;;;;;;;;;;;;5106418;28;20376;-77
2023/11/06 03:04:55;;;;;;;;;;;;;;;;;;5104828;28;20369;-75
2023/11/06 03:07:22;;;;;;;;;;;;;;;;;;5084087;28;19924;-77
2023/11/06 03:09:48;;;;;;;;;;;;;;;;;;5103865;28;20365;-76
2023/11/06 03:12:16;;;;;;;;;;;;;;;;;;5099812;28;19939;-78
2023/11/06 03:14:42;;;;;;;;;;;;;;;;;;5100061;28;19924;-77
2023/11/06 03:17:09;;;;;;;;;;;;;;;;;;5100795;28;19958;-78
2023/11/06 03:19:36;;;;;;;;;;;;;;;;;;5107272;28;19934;-76
2023/11/06 03:22:02;;;;;;;;;;;;;;;;;;5110468;28;20334;-75
2023/11/06 03:24:32;;;;;;;;;;;;;;;;;;5106037;28;19989;-75
2023/11/06 03:27:00;;;;;;;;;;;;;;;;;;5105049;28;20027;-77
2023/11/06 03:29:27;;;;;;;;;;;;;;;;;;5107426;28;19923;-77
2023/11/06 03:31:54;;;;;;;;;;;;;;;;;;5083422;28;19970;-75
2023/11/06 03:34:20;;;;;;;;;;;;;;;;;;5097567;28;20021;-76
2023/11/06 03:36:47;;;;;;;;;;;;;;;;;;5104145;28;20381;-79
2023/11/06 03:39:14;;;;;;;;;;;;;;;;;;5101544;28;19947;-75
2023/11/06 03:41:41;;;;;;;;;;;;;;;;;;5108928;28;19959;-77
2023/11/06 03:44:07;;;;;;;;;;;;;;;;;;5090133;28;19928;-77
2023/11/06 03:46:35;;;;;;;;;;;;;;;;;;5104988;28;19928;-77
2023/11/06 03:49:03;;;;;;;;;;;;;;;;;;5108214;28;19988;-76
2023/11/06 03:51:30;;;;;;;;;;;;;;;;;;5102992;28;20284;-75
2023/11/06 03:53:57;;;;;;;;;;;;;;;;;;5106115;28;19977;-75
2023/11/06 03:56:23;;;;;;;;;;;;;;;;;;5099128;28;19927;-77
2023/11/06 03:58:50;;;;;;;;;;;;;;;;;;5087237;28;19977;-76
2023/11/06 04:01:16;;;;;;;;;;;;;;;;;;5079941;28;19924;-77
2023/11/06 04:03:42;;;;;;;;;;;;;;;;;;5092997;28;20411;-77
2023/11/06 04:06:09;;;;;;;;;;;;;;;;;;5108608;28;19963;-78
2023/11/06 04:08:35;;;;;;;;;;;;;;;;;;5100691;28;20314;-77
2023/11/06 04:11:03;;;;;;;;;;;;;;;;;;5102517;28;19928;-76
2023/11/06 04:13:31;;;;;;;;;;;;;;;;;;5101082;28;19973;-75
2023/11/06 04:15:59;;;;;;;;;;;;;;;;;;5091772;28;20410;-76
2023/11/06 04:18:25;;;;;;;;;;;;;;;;;;5101429;28;19928;-78
2023/11/06 04:20:52;;;;;;;;;;;;;;;;;;5107842;28;19924;-76
2023/11/06 04:23:18;;;;;;;;;;;;;;;;;;5103673;28;19924;-77
2023/11/06 04:25:48;;;;;;;;;;;;;;;;;;5095416;28;19928;-76
2023/11/06 04:28:14;;;;;;;;;;;;;;;;;;5092203;28;19924;-76
2023/11/06 04:30:41;;;;;;;;;;;;;;;;;;5103180;28;19924;-77
2023/11/06 04:33:08;;;;;;;;;;;;;;;;;;5106379;28;20014;-76
2023/11/06 04:35:34;;;;;;;;;;;;;;;;;;5105755;28;19973;-76
2023/11/06 04:38:01;;;;;;;;;;;;;;;;;;5097826;28;20031;-76
2023/11/06 04:40:28;;;;;;;;;;;;;;;;;;5104164;28;20379;-78
2023/11/06 04:42:54;;;;;;;;;;;;;;;;;;5102534;28;19937;-76
2023/11/06 04:45:21;;;;;;;;;;;;;;;;;;5096506;28;19928;-76
2023/11/06 04:47:47;;;;;;;;;;;;;;;;;;5100128;28;19930;-76
2023/11/06 04:50:14;;;;;;;;;;;;;;;;;;5103614;28;20368;-78
2023/11/06 04:52:40;;;;;;;;;;;;;;;;;;5095758;28;19928;-77
2023/11/06 04:55:07;;;;;;;;;;;;;;;;;;5102573;28;19975;-76
2023/11/06 04:57:33;;;;;;;;;;;;;;;;;;5102999;28;19924;-76
2023/11/06 05:00:00;;;;;;;;;;;;;;;;;;5084594;28;19981;-76
2023/11/06 05:02:27;;;;;;;;;;;;;;;;;;5100608;28;19976;-76
2023/11/06 05:04:54;;;;;;;;;;;;;;;;;;5100729;28;19924;-75
2023/11/06 05:07:20;;;;;;;;;;;;;;;;;;5098738;28;20020;-77
2023/11/06 05:09:46;;;;;;;;;;;;;;;;;;5094896;28;20014;-76
2023/11/06 05:12:13;;;;;;;;;;;;;;;;;;5102886;28;19930;-75
2023/11/06 05:14:39;;;;;;;;;;;;;;;;;;5103406;28;20454;-76
2023/11/06 05:17:06;;;;;;;;;;;;;;;;;;5110070;28;19928;-76
2023/11/06 05:19:41;;;;;;;;;;;;;;;;;;5105033;28;19973;-77
2023/11/06 05:22:08;;;;;;;;;;;;;;;;;;5101759;28;19934;-77
2023/11/06 05:24:38;;;;;;;;;;;;;;;;;;5098002;28;19924;-76
2023/11/06 05:27:05;;;;;;;;;;;;;;;;;;5106403;28;19924;-76
2023/11/06 05:29:33;;;;;;;;;;;;;;;;;;5096686;28;20492;-76
2023/11/06 05:31:59;;;;;;;;;;;;;;;;;;5103799;28;19924;-76
2023/11/06 05:34:26;;;;;;;;;;;;;;;;;;5107558;28;20018;-77
2023/11/06 05:36:53;;;;;;;;;;;;;;;;;;5106380;28;19924;-76
2023/11/06 05:39:19;;;;;;;;;;;;;;;;;;5102499;28;19924;-76
2023/11/06 05:41:46;;;;;;;;;;;;;;;;;;5101424;28;20027;-77
2023/11/06 05:44:13;;;;;;;;;;;;;;;;;;5111480;28;20311;-76
2023/11/06 05:46:40;;;;;;;;;;;;;;;;;;5112558;28;19972;-77
2023/11/06 05:49:06;;;;;;;;;;;;;;;;;;5096356;28;20006;-77
2023/11/06 05:51:34;;;;;;;;;;;;;;;;;;5088997;28;19924;-76
2023/11/06 05:54:00;;;;;;;;;;;;;;;;;;5103997;28;19924;-77
2023/11/06 05:56:26;;;;;;;;;;;;;;;;;;5095649;28;20015;-77
2023/11/06 05:58:53;;;;;;;;;;;;;;;;;;5107156;28;20376;-77
2023/11/06 06:01:19;;;;;;;;;;;;;;;;;;5108895;28;19928;-78
2023/11/06 06:03:45;;;;;;;;;;;;;;;;;;5108260;28;19974;-77
2023/11/06 06:06:14;;;;;;;;;;;;;;;;;;5107198;28;19976;-77
2023/11/06 06:08:41;;;;;;;;;;;;;;;;;;5104494;28;20277;-77
2023/11/06 06:11:08;;;;;;;;;;;;;;;;;;5107167;28;19930;-78
2023/11/06 06:13:34;;;;;;;;;;;;;;;;;;5105884;28;19997;-77
2023/11/06 06:16:02;;;;;;;;;;;;;;;;;;5109292;28;19971;-77
2023/11/06 06:18:29;;;;;;;;;;;;;;;;;;5101786;27;19931;-77
2023/11/06 06:20:55;;;;;;;;;;;;;;;;;;5108909;28;19924;-77
2023/11/06 06:23:22;;;;;;;;;;;;;;;;;;5102837;28;20375;-76
2023/11/06 06:25:48;;;;;;;;;;;;;;;;;;5103220;28;20280;-77
2023/11/06 06:28:14;;;;;;;;;;;;;;;;;;5104143;28;20064;-76
2023/11/06 06:30:41;;;;;;;;;;;;;;;;;;5101400;28;19924;-76
2023/11/06 06:33:07;;;;;;;;;;;;;;;;;;5086424;28;20026;-75
2023/11/06 06:35:34;;;;;;;;;;;;;;;;;;5102651;28;19931;-76
2023/11/06 06:38:01;;;;;;;;;;;;;;;;;;5100154;28;19989;-76
2023/11/06 06:40:27;;;;;;;;;;;;;;;;;;5100141;28;19924;-77
2023/11/06 06:42:55;;;;;;;;;;;;;;;;;;5104281;28;19928;-75
2023/11/06 06:45:22;;;;;;;;;;;;;;;;;;5094852;28;20352;-76
2023/11/06 06:47:49;;;;;;;;;;;;;;;;;;5097788;28;19935;-76
2023/11/06 06:50:16;;;;;;;;;;;;;;;;;;5085261;28;20372;-75
2023/11/06 06:52:43;;;;;;;;;;;;;;;;;;5103510;28;20376;-75
2023/11/06 06:55:10;;;;;;;;;;;;;;;;;;5106223;28;19928;-76
2023/11/06 06:57:36;;;;;;;;;;;;;;;;;;5106557;28;19967;-76
2023/11/06 07:00:03;;;;;;;;;;;;;;;;;;5100070;28;20342;-75
2023/11/06 07:02:29;;;;;;;;;;;;;;;;;;5097659;28;19927;-76
2023/11/06 07:04:56;;;;;;;;;;;;;;;;;;5104223;28;19934;-75
2023/11/06 07:07:22;;;;;;;;;;;;;;;;;;5105333;28;20418;-76
2023/11/06 07:09:49;;;;;;;;;;;;;;;;;;5109275;28;19966;-75
2023/11/06 07:12:15;;;;;;;;;;;;;;;;;;5104252;28;20022;-75
2023/11/06 07:14:42;;;;;;;;;;;;;;;;;;5096594;28;20279;-76
2023/11/06 07:17:08;;;;;;;;;;;;;;;;;;5108435;28;19924;-73
2023/11/06 07:19:35;;;;;;;;;;;;;;;;;;5100428;28;19924;-76
2023/11/06 07:22:01;;;;;;;;;;;;;;;;;;5108518;28;19931;-78
2023/11/06 07:24:28;;;;;;;;;;;;;;;;;;5102256;28;19975;-77
2023/11/06 07:26:55;;;;;;;;;;;;;;;;;;5108196;28;20391;-77
2023/11/06 07:29:23;;;;;;;;;;;;;;;;;;5086403;28;19924;-78
2023/11/06 07:31:50;;;;;;;;;;;;;;;;;;5098652;28;19924;-79
2023/11/06 07:34:17;;;;;;;;;;;;;;;;;;5098833;28;19934;-77
2023/11/06 07:36:45;;;;;;;;;;;;;;;;;;5098672;28;19946;-76
2023/11/06 07:39:14;;;;;;;;;;;;;;;;;;5102269;28;19973;-77
2023/11/06 07:41:41;;;;;;;;;;;;;;;;;;5108926;28;19923;-79
2023/11/06 07:44:08;;;;;;;;;;;;;;;;;;5102155;28;20368;-75
2023/11/06 07:46:35;;;;;;;;;;;;;;;;;;5101791;28;19924;-78
2023/11/06 07:49:02;;;;;;;;;;;;;;;;;;5112694;28;19931;-78
2023/11/06 07:51:28;;;;;;;;;;;;;;;;;;5105076;28;19924;-77
2023/11/06 07:53:54;;;;;;;;;;;;;;;;;;5106542;28;19924;-78
2023/11/06 07:56:21;;;;;;;;;;;;;;;;;;5086221;28;19928;-78
2023/11/06 07:58:49;;;;;;;;;;;;;;;;;;5102356;28;20033;-78
2023/11/06 08:01:16;;;;;;;;;;;;;;;;;;5100121;28;20443;-79
2023/11/06 08:03:43;;;;;;;;;;;;;;;;;;5099591;28;19982;-78
2023/11/06 08:06:09;;;;;;;;;;;;;;;;;;5098040;28;19970;-76
2023/11/06 08:08:36;;;;;;;;;;;;;;;;;;5100991;28;20381;-76
2023/11/06 08:11:02;;;;;;;;;;;;;;;;;;5102405;28;20000;-75
2023/11/06 08:13:32;;;;;;;;;;;;;;;;;;5106201;28;19974;-76
2023/11/06 08:15:59;;;;;;;;;;;;;;;;;;5103008;28;19924;-77
2023/11/06 08:18:26;;;;;;;;;;;;;;;;;;5102928;28;19928;-75
2023/11/06 08:20:52;;;;;;;;;;;;;;;;;;5106642;28;19928;-74
2023/11/06 08:23:18;;;;;;;;;;;;;;;;;;5093356;28;19925;-76
2023/11/06 08:25:45;;;;;;;;;;;;;;;;;;5094962;28;19924;-77
2023/11/06 08:28:11;;;;;;;;;;;;;;;;;;5094606;28;20520;-76
2023/11/06 08:30:38;;;;;;;;;;;;;;;;;;5080006;28;20034;-77
2023/11/06 08:33:06;;;;;;;;;;;;;;;;;;5106893;28;19924;-76
2023/11/06 08:35:32;;;;;;;;;;;;;;;;;;5102298;28;19932;-78
2023/11/06 08:38:02;;;;;;;;;;;;;;;;;;5102131;28;19924;-77
2023/11/06 08:40:29;;;;;;;;;;;;;;;;;;5085590;28;19928;-76
2023/11/06 08:42:55;;;;;;;;;;;;;;;;;;5099624;28;20376;-77
2023/11/06 08:45:23;;;;;;;;;;;;;;;;;;5102587;28;19973;-77
2023/11/06 08:47:49;;;;;;;;;;;;;;;;;;5084179;28;20030;-77
2023/11/06 08:50:17;;;;;;;;;;;;;;;;;;5085727;28;19923;-76
2023/11/06 08:52:43;;;;;;;;;;;;;;;;;;5089648;28;19951;-75
2023/11/06 08:55:10;;;;;;;;;;;;;;;;;;5104526;28;19924;-76
2023/11/06 08:57:39;;;;;;;;;;;;;;;;;;5092895;28;19931;-76
2023/11/06 09:00:08;;;;;;;;;;;;;;;;;;5101254;28;19924;-77
2023/11/06 09:02:35;;;;;;;;;;;;;;;;;;5108635;28;19973;-77
2023/11/06 09:05:03;;;;;;;;;;;;;;;;;;5112587;28;19939;-77
2023/11/06 09:07:29;;;;;;;;;;;;;;;;;;5097457;28;19954;-75
2023/11/06 09:09:56;;;;;;;;;;;;;;;;;;5107041;28;20019;-76
2023/11/06 09:12:22;;;;;;;;;;;;;;;;;;5111971;28;19977;-74
2023/11/06 09:14:49;;;;;;;;;;;;;;;;;;5105637;28;20294;-78
2023/11/06 09:17:16;;;;;;;;;;;;;;;;;;5105585;28;19924;-77
2023/11/06 09:19:43;;;;;;;;;;;;;;;;;;5109947;28;19928;-75
2023/11/06 09:22:09;;;;;;;;;;;;;;;;;;5106322;28;19924;-77
2023/11/06 09:24:38;;;;;;;;;;;;;;;;;;5109578;28;19927;-78
2023/11/06 09:27:04;;;;;;;;;;;;;;;;;;5110622;28;20245;-76
2023/11/06 09:29:31;;;;;;;;;;;;;;;;;;5106614;28;19924;-76
2023/11/06 09:31:58;;;;;;;;;;;;;;;;;;5105514;28;20003;-76
2023/11/06 09:34:25;;;;;;;;;;;;;;;;;;5109556;28;19928;-76
2023/11/06 09:36:51;;;;;;;;;;;;;;;;;;5089745;28;19924;-77
2023/11/06 09:39:18;;;;;;;;;;;;;;;;;;5107728;28;19924;-78
2023/11/06 09:41:45;;;;;;;;;;;;;;;;;;5107425;28;19928;-77
2023/11/06 09:44:11;;;;;;;;;;;;;;;;;;5106842;28;20291;-77
2023/11/06 09:46:40;;;;;;;;;;;;;;;;;;5106462;28;19934;-78
2023/11/06 09:49:11;;;;;;;;;;;;;;;;;;5102153;28;20296;-77
2023/11/06 09:51:38;;;;;;;;;;;;;;;;;;5113688;28;19924;-78
2023/11/06 09:54:10;;;;;;;;;;;;;;;;;;5106760;28;19928;-76
2023/11/06 09:56:36;;;;;;;;;;;;;;;;;;5106415;28;19924;-77
2023/11/06 09:59:03;;;;;;;;;;;;;;;;;;5101243;28;20372;-74
2023/11/06 10:01:30;;;;;;;;;;;;;;;;;;5106797;28;20636;-76
2023/11/06 10:03:56;;;;;;;;;;;;;;;;;;5108010;28;19930;-79
2023/11/06 10:06:23;;;;;;;;;;;;;;;;;;5106688;28;20010;-78
2023/11/06 10:08:50;;;;;;;;;;;;;;;;;;5109366;28;19989;-77
2023/11/06 10:11:17;;;;;;;;;;;;;;;;;;5105689;28;19928;-78
2023/11/06 10:13:45;;;;;;;;;;;;;;;;;;5107464;28;20404;-77
2023/11/06 10:16:14;;;;;;;;;;;;;;;;;;5109754;28;19924;-78
2023/11/06 10:18:41;;;;;;;;;;;;;;;;;;5103237;28;19935;-75
2023/11/06 10:21:09;;;;;;;;;;;;;;;;;;5088708;28;19928;-77
2023/11/06 10:23:37;;;;;;;;;;;;;;;;;;5106446;28;19924;-76
2023/11/06 10:26:04;;;;;;;;;;;;;;;;;;5106435;28;20273;-77
2023/11/06 10:28:31;;;;;;;;;;;;;;;;;;5105012;28;20019;-77
2023/11/06 10:31:00;;;;;;;;;;;;;;;;;;5106520;28;19928;-78
2023/11/06 10:33:28;;;;;;;;;;;;;;;;;;5104020;28;19934;-75
2023/11/06 10:35:56;;;;;;;;;;;;;;;;;;5108015;28;20440;-75
2023/11/06 10:38:23;;;;;;;;;;;;;;;;;;5099490;28;19924;-77
2023/11/06 10:40:51;;;;;;;;;;;;;;;;;;5104239;28;19932;-77
2023/11/06 10:43:18;;;;;;;;;;;;;;;;;;5110350;28;20026;-75
2023/11/06 10:45:45;;;;;;;;;;;;;;;;;;5101571;28;19956;-78
2023/11/06 10:48:12;;;;;;;;;;;;;;;;;;5105427;28;19927;-77
2023/11/06 10:50:41;;;;;;;;;;;;;;;;;;5104447;28;19924;-77
2023/11/06 10:53:07;;;;;;;;;;;;;;;;;;5101170;28;19928;-75
2023/11/06 17:04:25;;;;;;;;;;;;;;;;;;5554701;23;20362;-75
2023/11/06 17:06:52;;;;;;;;;;;;;;;;;;4957175;28;20006;-73
2023/11/06 17:09:19;;;;;;;;;;;;;;;;;;4946617;28;19926;-74
2023/11/06 17:11:45;;;;;;;;;;;;;;;;;;4959369;28;19953;-73
2023/11/06 17:14:12;;;;;;;;;;;;;;;;;;4961450;28;20367;-74
2023/11/06 17:16:39;;;;;;;;;;;;;;;;;;4960022;28;19930;-73
2023/11/06 17:36:19;;;;;;;;;;;;;;;;;;4965842;28;20068;-75
2023/11/06 17:38:45;;;;;;;;;;;;;;;;;;4960471;28;19927;-73
2023/11/06 17:41:12;;;;;;;;;;;;;;;;;;4954019;28;19977;-73
2023/11/06 17:43:38;;;;;;;;;;;;;;;;;;4974877;28;20005;-74
2023/11/06 17:46:05;;;;;;;;;;;;;;;;;;4967232;28;19969;-75
2023/11/06 17:48:32;;;;;;;;;;;;;;;;;;4963314;28;20297;-74
2023/11/06 17:51:00;;;;;;;;;;;;;;;;;;4945189;29;19926;-74
2023/11/06 17:53:30;;;;;;;;;;;;;;;;;;4943820;28;19936;-75
2023/11/06 17:55:57;;;;;;;;;;;;;;;;;;4961962;28;19933;-77
2023/11/06 17:58:23;;;;;;;;;;;;;;;;;;4964353;28;19927;-74
2023/11/06 18:00:50;;;;;;;;;;;;;;;;;;4949057;28;19926;-75
2023/11/06 18:03:17;;;;;;;;;;;;;;;;;;4967308;28;19977;-77
2023/11/06 18:05:43;;;;;;;;;;;;;;;;;;4964073;28;20020;-76
2023/11/06 18:08:10;;;;;;;;;;;;;;;;;;4960311;28;19982;-74
2023/11/06 18:10:37;;;;;;;;;;;;;;;;;;4961915;28;19962;-74
2023/11/06 18:13:03;;;;;;;;;;;;;;;;;;4969816;28;20017;-74
2023/11/06 18:15:29;;;;;;;;;;;;;;;;;;4960205;28;19933;-75
2023/11/06 18:17:56;;;;;;;;;;;;;;;;;;4969620;28;19930;-75
2023/11/06 18:20:25;;;;;;;;;;;;;;;;;;4961530;28;19938;-73
2023/11/06 18:22:51;;;;;;;;;;;;;;;;;;4964667;28;19950;-76
2023/11/06 18:25:18;;;;;;;;;;;;;;;;;;4963314;28;19981;-73
2023/11/06 18:27:45;;;;;;;;;;;;;;;;;;4945999;28;19927;-76
2023/11/06 18:30:11;;;;;;;;;;;;;;;;;;4935408;29;20140;-75
2023/11/06 18:32:38;;;;;;;;;;;;;;;;;;4953255;28;19926;-76
2023/11/06 18:35:05;;;;;;;;;;;;;;;;;;4945508;28;19962;-78
2023/11/06 18:37:32;;;;;;;;;;;;;;;;;;4958909;28;19934;-73
2023/11/06 18:40:02;;;;;;;;;;;;;;;;;;4940225;28;20007;-76
2023/11/06 18:42:28;;;;;;;;;;;;;;;;;;4967558;28;19926;-74
2023/11/06 18:44:55;;;;;;;;;;;;;;;;;;4949254;28;19950;-77
2023/11/06 18:47:24;;;;;;;;;;;;;;;;;;4963186;28;19946;-75
2023/11/06 18:49:51;;;;;;;;;;;;;;;;;;4942422;29;20033;-75
2023/11/06 18:52:18;;;;;;;;;;;;;;;;;;4958506;28;19926;-76
2023/11/06 18:54:44;;;;;;;;;;;;;;;;;;4961183;28;20012;-75
2023/11/06 18:57:11;;;;;;;;;;;;;;;;;;4962223;28;20443;-74
2023/11/06 18:59:38;;;;;;;;;;;;;;;;;;4965949;28;20443;-73
2023/11/06 19:02:05;;;;;;;;;;;;;;;;;;4965182;28;19932;-75
2023/11/06 19:04:34;;;;;;;;;;;;;;;;;;4930632;29;19930;-74
2023/11/06 19:07:00;;;;;;;;;;;;;;;;;;4963003;28;20371;-74
2023/11/06 19:09:27;;;;;;;;;;;;;;;;;;4964462;28;19958;-76
2023/11/06 19:11:53;;;;;;;;;;;;;;;;;;4949990;28;20017;-75
2023/11/06 19:14:20;;;;;;;;;;;;;;;;;;4965088;28;20404;-75
2023/11/06 19:16:46;;;;;;;;;;;;;;;;;;4964610;28;20009;-75
2023/11/06 19:19:13;;;;;;;;;;;;;;;;;;4960795;28;20367;-76
2023/11/06 19:21:43;;;;;;;;;;;;;;;;;;4964385;28;19934;-76
2023/11/06 19:24:10;;;;;;;;;;;;;;;;;;4939589;28;19930;-74
2023/11/06 19:26:40;;;;;;;;;;;;;;;;;;4965290;28;19926;-75
2023/11/06 19:29:10;;;;;;;;;;;;;;;;;;4964081;28;19930;-74
2023/11/06 19:31:37;;;;;;;;;;;;;;;;;;4944246;29;20006;-75
2023/11/06 19:34:05;;;;;;;;;;;;;;;;;;4962347;28;19933;-76
2023/11/06 19:36:33;;;;;;;;;;;;;;;;;;4963099;28;20030;-75
2023/11/06 19:38:59;;;;;;;;;;;;;;;;;;4955930;28;19973;-73
2023/11/06 19:41:26;;;;;;;;;;;;;;;;;;4950828;28;19974;-73
2023/11/06 19:43:52;;;;;;;;;;;;;;;;;;4946241;28;20299;-73
2023/11/06 19:46:19;;;;;;;;;;;;;;;;;;4966268;28;19982;-77
2023/11/06 19:48:46;;;;;;;;;;;;;;;;;;4956795;28;19926;-75
2023/11/06 19:51:12;;;;;;;;;;;;;;;;;;4953991;28;19931;-76
2023/11/06 19:53:40;;;;;;;;;;;;;;;;;;4959367;28;19930;-75
2023/11/06 19:56:07;;;;;;;;;;;;;;;;;;4961525;28;20021;-75
2023/11/06 19:58:33;;;;;;;;;;;;;;;;;;4942764;28;19968;-74
2023/11/06 20:01:00;;;;;;;;;;;;;;;;;;4959703;28;20306;-75
2023/11/06 20:03:27;;;;;;;;;;;;;;;;;;4963565;28;20394;-76
2023/11/06 20:05:54;;;;;;;;;;;;;;;;;;4961301;28;19926;-75
2023/11/06 20:08:23;;;;;;;;;;;;;;;;;;4962004;28;19989;-76
2023/11/06 20:10:50;;;;;;;;;;;;;;;;;;4966458;28;19926;-74
2023/11/06 20:13:17;;;;;;;;;;;;;;;;;;4968205;28;19972;-74
2023/11/06 20:15:44;;;;;;;;;;;;;;;;;;4958251;28;19927;-75
2023/11/06 20:18:11;;;;;;;;;;;;;;;;;;4952225;28;19979;-75
2023/11/06 20:20:37;;;;;;;;;;;;;;;;;;4947578;28;19930;-76
2023/11/06 20:23:04;;;;;;;;;;;;;;;;;;4956680;28;19927;-76
2023/11/06 20:25:31;;;;;;;;;;;;;;;;;;4960366;28;20177;-76
2023/11/06 20:27:57;;;;;;;;;;;;;;;;;;4940584;28;19927;-76
2023/11/06 20:30:24;;;;;;;;;;;;;;;;;;4952004;28;19927;-76
2023/11/06 20:32:50;;;;;;;;;;;;;;;;;;4956870;28;20022;-74
2023/11/06 20:35:17;;;;;;;;;;;;;;;;;;4959433;28;19965;-74
2023/11/06 20:37:44;;;;;;;;;;;;;;;;;;4942905;29;19933;-75
2023/11/06 20:40:11;;;;;;;;;;;;;;;;;;4955739;28;19938;-74
2023/11/06 20:42:38;;;;;;;;;;;;;;;;;;4962187;28;19926;-75
2023/11/06 20:45:07;;;;;;;;;;;;;;;;;;4956960;28;19933;-75
2023/11/06 20:47:33;;;;;;;;;;;;;;;;;;4962476;28;19927;-75
2023/11/06 20:50:00;;;;;;;;;;;;;;;;;;4962424;28;19926;-75
2023/11/06 20:52:32;;;;;;;;;;;;;;;;;;4949950;28;20405;-77
2023/11/06 20:54:59;;;;;;;;;;;;;;;;;;4938280;28;19977;-75
2023/11/06 20:57:26;;;;;;;;;;;;;;;;;;4964270;28;19927;-75
2023/11/06 20:59:54;;;;;;;;;;;;;;;;;;4976841;28;20567;-74
2023/11/06 21:02:20;;;;;;;;;;;;;;;;;;4969721;28;19927;-76
2023/11/06 21:04:49;;;;;;;;;;;;;;;;;;4964048;28;19993;-75
2023/11/06 21:07:16;;;;;;;;;;;;;;;;;;4966797;28;20540;-75
2023/11/06 21:09:43;;;;;;;;;;;;;;;;;;4964670;28;19930;-73
2023/11/06 21:12:10;;;;;;;;;;;;;;;;;;4949258;28;19934;-74
2023/11/06 21:14:37;;;;;;;;;;;;;;;;;;4961957;28;20026;-76
2023/11/06 21:17:03;;;;;;;;;;;;;;;;;;4947028;28;19934;-76
2023/11/06 21:19:30;;;;;;;;;;;;;;;;;;4966459;28;20463;-75
2023/11/06 21:21:56;;;;;;;;;;;;;;;;;;4960766;28;19931;-76
2023/11/06 21:24:24;;;;;;;;;;;;;;;;;;4969846;28;19934;-75
2023/11/06 21:26:54;;;;;;;;;;;;;;;;;;4950619;28;19935;-74
2023/11/06 21:29:20;;;;;;;;;;;;;;;;;;4973462;28;20379;-75
2023/11/06 21:31:48;;;;;;;;;;;;;;;;;;4971550;28;19926;-75
2023/11/06 21:34:14;;;;;;;;;;;;;;;;;;4930799;29;20005;-75
2023/11/06 21:36:42;;;;;;;;;;;;;;;;;;4958516;28;20025;-73
2023/11/06 21:39:08;;;;;;;;;;;;;;;;;;4962750;28;19993;-76
2023/11/06 21:41:35;;;;;;;;;;;;;;;;;;4962652;28;19933;-75
2023/11/06 21:44:02;;;;;;;;;;;;;;;;;;4965393;28;20262;-75
2023/11/06 21:46:30;;;;;;;;;;;;;;;;;;4949243;28;19932;-76
2023/11/06 21:48:56;;;;;;;;;;;;;;;;;;4969717;28;20034;-74
2023/11/06 21:51:23;;;;;;;;;;;;;;;;;;4970451;28;19969;-75
2023/11/06 21:53:50;;;;;;;;;;;;;;;;;;4968233;28;19998;-75
2023/11/06 21:56:16;;;;;;;;;;;;;;;;;;4966315;28;19926;-75
2023/11/06 21:58:43;;;;;;;;;;;;;;;;;;4969418;28;19934;-75
2023/11/06 22:01:10;;;;;;;;;;;;;;;;;;4963695;28;19974;-74
2023/11/06 22:03:37;;;;;;;;;;;;;;;;;;4963503;28;19993;-74
2023/11/06 22:06:03;;;;;;;;;;;;;;;;;;4970688;28;19930;-74
2023/11/06 22:08:31;;;;;;;;;;;;;;;;;;4967981;28;20391;-76
2023/11/06 22:10:58;;;;;;;;;;;;;;;;;;4936685;28;19938;-74
2023/11/06 22:13:24;;;;;;;;;;;;;;;;;;4954359;28;20054;-76
2023/11/06 22:15:52;;;;;;;;;;;;;;;;;;4957924;28;19931;-74
2023/11/06 22:18:19;;;;;;;;;;;;;;;;;;4957144;28;19926;-74
2023/11/06 22:20:46;;;;;;;;;;;;;;;;;;4949287;28;19926;-74
2023/11/06 22:23:15;;;;;;;;;;;;;;;;;;4965811;28;19925;-74
2023/11/06 22:25:42;;;;;;;;;;;;;;;;;;4965847;28;19977;-75
2023/11/06 22:28:08;;;;;;;;;;;;;;;;;;4966410;28;20365;-75
2023/11/06 22:30:35;;;;;;;;;;;;;;;;;;4969443;28;20264;-76
2023/11/06 22:33:03;;;;;;;;;;;;;;;;;;4944950;28;19926;-75
2023/11/06 22:35:29;;;;;;;;;;;;;;;;;;4940226;29;20430;-75
2023/11/06 22:37:58;;;;;;;;;;;;;;;;;;4948809;28;19932;-75
2023/11/06 22:40:26;;;;;;;;;;;;;;;;;;4961482;28;19937;-76
2023/11/06 22:42:53;;;;;;;;;;;;;;;;;;4951576;28;19942;-73
2023/11/06 22:45:19;;;;;;;;;;;;;;;;;;4943630;28;19927;-75
2023/11/06 22:47:47;;;;;;;;;;;;;;;;;;4960185;28;20017;-76
2023/11/06 22:50:14;;;;;;;;;;;;;;;;;;4963764;28;19933;-75
2023/11/06 22:52:40;;;;;;;;;;;;;;;;;;4945438;28;19933;-74
2023/11/06 22:55:07;;;;;;;;;;;;;;;;;;4957132;28;19931;-76
2023/11/06 22:57:33;;;;;;;;;;;;;;;;;;4945282;28;20024;-76
2023/11/06 23:00:00;;;;;;;;;;;;;;;;;;4957596;28;19974;-76
2023/11/06 23:02:26;;;;;;;;;;;;;;;;;;4959083;28;19960;-74
2023/11/06 23:04:54;;;;;;;;;;;;;;;;;;4970157;28;20299;-74
2023/11/06 23:07:22;;;;;;;;;;;;;;;;;;4948208;28;19933;-74
2023/11/06 23:09:48;;;;;;;;;;;;;;;;;;4972042;28;19930;-75
2023/11/06 23:12:15;;;;;;;;;;;;;;;;;;4959773;28;19958;-75
2023/11/06 23:14:41;;;;;;;;;;;;;;;;;;4956359;28;19980;-76
2023/11/06 23:17:08;;;;;;;;;;;;;;;;;;4957100;28;19933;-75